Time;durP1;ratioP1;P1;durP2;ratioP2;P2;SDS_P1;SDS_P2;PMS_P1;PMS_P2;Temp;Humidity;BMP_temperature;BMP_pressure;BME280_temperature;BME280_humidity;BME280_pressure;Samples;Min_cycle;Max_cycle;Signal;HPM_P1;HPM_P2
2022/03/25 00:00:24;;;;;;;22.30;15.45;;;;;;;;;;5012541;28;20140;-62
2022/03/25 00:02:51;;;;;;;22.42;14.88;;;;;;;;;;5012567;28;20112;-62
2022/03/25 00:05:19;;;;;;;23.65;14.55;;;;;;;;;;5012895;28;20454;-62
2022/03/25 00:07:46;;;;;;;24.52;15.00;;;;;;;;;;5012902;28;20414;-61
2022/03/25 00:10:13;;;;;;;31.20;18.13;;;;;;;;;;5012802;28;20085;-62
2022/03/25 00:12:41;;;;;;;27.85;15.60;;;;;;;;;;5012688;28;20042;-62
2022/03/25 00:15:09;;;;;;;25.70;15.10;;;;;;;;;;5012563;28;20054;-61
2022/03/25 00:17:36;;;;;;;24.77;15.00;;;;;;;;;;5012401;28;20066;-62
2022/03/25 00:20:04;;;;;;;23.20;15.15;;;;;;;;;;5012775;28;20060;-62
2022/03/25 00:22:31;;;;;;;24.23;15.80;;;;;;;;;;5012872;28;20574;-62
2022/03/25 00:24:58;;;;;;;24.25;13.85;;;;;;;;;;5011971;28;20138;-62
2022/03/25 00:27:25;;;;;;;22.98;15.13;;;;;;;;;;5012165;28;20050;-62
2022/03/25 00:29:54;;;;;;;23.73;15.25;;;;;;;;;;5014255;28;20050;-62
2022/03/25 00:32:21;;;;;;;22.52;14.90;;;;;;;;;;5016157;28;20545;-62
2022/03/25 00:34:48;;;;;;;23.58;14.70;;;;;;;;;;5016245;28;20050;-64
2022/03/25 00:37:15;;;;;;;23.10;14.20;;;;;;;;;;5016339;28;20133;-62
2022/03/25 00:39:42;;;;;;;24.48;15.13;;;;;;;;;;5015869;28;20104;-61
2022/03/25 00:42:13;;;;;;;22.45;15.35;;;;;;;;;;5015708;28;20050;-61
2022/03/25 00:44:40;;;;;;;21.27;15.82;;;;;;;;;;5015499;28;20060;-61
2022/03/25 00:47:09;;;;;;;26.13;15.07;;;;;;;;;;5015792;28;20133;-61
2022/03/25 00:49:37;;;;;;;24.48;15.55;;;;;;;;;;5015700;28;20446;-62
2022/03/25 00:52:04;;;;;;;25.33;16.23;;;;;;;;;;5016022;28;20057;-62
2022/03/25 00:54:31;;;;;;;22.92;15.02;;;;;;;;;;5015524;28;20049;-62
2022/03/25 00:56:58;;;;;;;22.38;14.45;;;;;;;;;;5015872;28;20415;-62
2022/03/25 00:59:25;;;;;;;26.95;14.10;;;;;;;;;;5015547;28;20050;-61
2022/03/25 01:01:52;;;;;;;23.58;14.02;;;;;;;;;;5015669;28;20054;-61
2022/03/25 01:04:21;;;;;;;21.42;13.40;;;;;;;;;;5015753;28;20384;-62
2022/03/25 01:06:48;;;;;;;21.23;14.52;;;;;;;;;;5015936;28;20056;-62
2022/03/25 01:09:15;;;;;;;20.88;15.02;;;;;;;;;;5015515;28;20050;-62
2022/03/25 01:11:42;;;;;;;23.25;15.15;;;;;;;;;;5015213;28;20057;-62
2022/03/25 01:14:09;;;;;;;21.05;14.45;;;;;;;;;;5015390;28;20045;-62
2022/03/25 01:16:36;;;;;;;23.33;15.10;;;;;;;;;;5015210;28;20526;-62
2022/03/25 01:19:03;;;;;;;20.08;14.10;;;;;;;;;;5015103;28;20614;-62
2022/03/25 01:21:32;;;;;;;27.92;14.43;;;;;;;;;;5015262;28;20085;-62
2022/03/25 01:23:59;;;;;;;21.02;14.60;;;;;;;;;;5015058;28;20053;-61
2022/03/25 01:26:26;;;;;;;20.63;14.18;;;;;;;;;;5015008;28;20049;-62
2022/03/25 01:28:53;;;;;;;23.73;15.57;;;;;;;;;;5014848;28;20054;-62
2022/03/25 01:31:21;;;;;;;19.55;14.38;;;;;;;;;;5014602;28;20100;-62
2022/03/25 01:33:48;;;;;;;23.33;15.20;;;;;;;;;;5014905;28;20049;-62
2022/03/25 01:36:15;;;;;;;22.17;14.63;;;;;;;;;;5014902;28;20064;-62
2022/03/25 01:38:44;;;;;;;22.63;16.35;;;;;;;;;;5014865;28;20062;-62
2022/03/25 01:41:11;;;;;;;22.98;15.15;;;;;;;;;;5014899;28;20046;-62
2022/03/25 01:43:38;;;;;;;24.42;14.88;;;;;;;;;;5014794;28;20480;-62
2022/03/25 01:46:05;;;;;;;21.48;14.95;;;;;;;;;;5014794;28;20173;-62
2022/03/25 01:48:32;;;;;;;23.00;15.07;;;;;;;;;;5014700;28;20545;-62
2022/03/25 01:51:02;;;;;;;20.80;15.07;;;;;;;;;;5014575;28;20050;-62
2022/03/25 01:53:29;;;;;;;19.40;14.07;;;;;;;;;;5014683;28;20133;-62
2022/03/25 01:55:59;;;;;;;20.55;14.85;;;;;;;;;;5014591;28;20058;-62
2022/03/25 01:58:28;;;;;;;23.83;14.70;;;;;;;;;;5015069;28;20475;-62
2022/03/25 02:00:55;;;;;;;24.80;16.23;;;;;;;;;;5014698;28;20052;-61
2022/03/25 02:03:22;;;;;;;23.52;14.32;;;;;;;;;;5014551;28;20510;-62
2022/03/25 02:05:50;;;;;;;22.30;14.35;;;;;;;;;;5014805;28;20050;-61
2022/03/25 02:08:18;;;;;;;19.35;13.68;;;;;;;;;;5014267;28;20153;-62
2022/03/25 02:10:45;;;;;;;19.95;13.27;;;;;;;;;;5014447;28;20140;-62
2022/03/25 02:13:14;;;;;;;20.58;13.35;;;;;;;;;;5014264;28;20050;-62
2022/03/25 02:15:43;;;;;;;21.38;13.27;;;;;;;;;;5014136;28;20054;-62
2022/03/25 02:18:14;;;;;;;20.05;12.55;;;;;;;;;;5014146;28;20112;-63
2022/03/25 02:20:41;;;;;;;21.13;12.93;;;;;;;;;;5013670;28;20057;-63
2022/03/25 02:23:10;;;;;;;16.08;11.77;;;;;;;;;;5013587;28;20415;-62
2022/03/25 02:25:37;;;;;;;18.88;13.27;;;;;;;;;;5013644;28;20061;-62
2022/03/25 02:28:05;;;;;;;21.13;12.45;;;;;;;;;;5014252;28;20403;-62
2022/03/25 02:30:33;;;;;;;20.13;12.95;;;;;;;;;;5013539;28;20050;-62
2022/03/25 02:33:01;;;;;;;19.77;12.93;;;;;;;;;;5014082;28;20137;-61
2022/03/25 02:35:39;;;;;;;20.98;12.85;;;;;;;;;;5013731;28;20056;-62
2022/03/25 02:38:07;;;;;;;17.88;11.55;;;;;;;;;;5013663;28;20056;-62
2022/03/25 02:40:35;;;;;;;17.80;12.30;;;;;;;;;;5013479;28;20064;-62
2022/03/25 02:43:02;;;;;;;18.00;11.57;;;;;;;;;;5013749;28;20137;-61
2022/03/25 02:45:29;;;;;;;19.95;11.25;;;;;;;;;;5013597;28;20491;-66
2022/03/25 02:47:56;;;;;;;20.70;12.90;;;;;;;;;;5013418;28;20049;-62
2022/03/25 02:50:25;;;;;;;20.50;12.82;;;;;;;;;;5013252;28;20077;-61
2022/03/25 02:52:52;;;;;;;18.60;11.63;;;;;;;;;;5012905;28;20487;-62
2022/03/25 02:55:19;;;;;;;17.30;11.73;;;;;;;;;;5013355;28;20483;-62
2022/03/25 02:57:48;;;;;;;20.10;11.63;;;;;;;;;;5013536;28;20108;-62
2022/03/25 03:00:15;;;;;;;18.00;11.52;;;;;;;;;;5013208;28;20060;-62
2022/03/25 03:02:43;;;;;;;21.67;13.95;;;;;;;;;;5013604;28;20054;-62
2022/03/25 03:05:10;;;;;;;28.48;15.10;;;;;;;;;;5013369;28;20052;-62
2022/03/25 03:07:37;;;;;;;27.05;16.63;;;;;;;;;;5013176;28;20104;-62
2022/03/25 03:10:05;;;;;;;29.08;17.77;;;;;;;;;;5013765;28;20065;-62
2022/03/25 03:12:33;;;;;;;28.20;17.50;;;;;;;;;;5012982;28;20076;-62
2022/03/25 03:15:02;;;;;;;33.95;18.95;;;;;;;;;;5012803;28;20499;-61
2022/03/25 03:17:29;;;;;;;30.33;17.83;;;;;;;;;;5012928;28;20049;-62
2022/03/25 03:19:56;;;;;;;28.95;17.23;;;;;;;;;;5013326;28;20054;-61
2022/03/25 03:22:23;;;;;;;25.52;16.05;;;;;;;;;;5013043;28;20060;-61
2022/03/25 03:24:50;;;;;;;29.83;17.30;;;;;;;;;;5013061;28;20046;-62
2022/03/25 03:27:17;;;;;;;27.08;17.00;;;;;;;;;;5012766;28;20048;-62
2022/03/25 03:29:44;;;;;;;30.45;17.50;;;;;;;;;;5012863;28;20112;-62
2022/03/25 03:32:13;;;;;;;28.27;17.10;;;;;;;;;;5012694;28;20054;-62
2022/03/25 03:34:40;;;;;;;30.58;18.23;;;;;;;;;;5012802;28;20542;-62
2022/03/25 03:37:07;;;;;;;28.48;16.77;;;;;;;;;;5012746;28;20052;-62
2022/03/25 03:39:34;;;;;;;29.00;16.42;;;;;;;;;;5012611;28;20468;-62
2022/03/25 03:42:02;;;;;;;26.77;16.55;;;;;;;;;;5012759;28;20050;-62
2022/03/25 03:44:29;;;;;;;27.17;16.80;;;;;;;;;;5012649;28;20144;-62
2022/03/25 03:46:57;;;;;;;28.45;16.40;;;;;;;;;;5013153;28;20056;-61
2022/03/25 03:49:28;;;;;;;27.95;16.15;;;;;;;;;;5012569;28;20107;-62
2022/03/25 03:51:55;;;;;;;27.27;16.35;;;;;;;;;;5012647;28;20050;-61
2022/03/25 03:54:22;;;;;;;26.52;16.08;;;;;;;;;;5012978;28;20060;-62
2022/03/25 03:56:49;;;;;;;23.85;14.80;;;;;;;;;;5012560;28;20057;-62
2022/03/25 03:59:16;;;;;;;25.42;14.38;;;;;;;;;;5012902;28;20056;-62
2022/03/25 04:01:43;;;;;;;20.88;12.40;;;;;;;;;;5012390;28;20050;-62
2022/03/25 04:04:10;;;;;;;20.92;13.07;;;;;;;;;;5013543;28;20056;-62
2022/03/25 04:06:39;;;;;;;22.30;12.93;;;;;;;;;;5016793;28;20405;-61
2022/03/25 04:09:06;;;;;;;23.17;13.57;;;;;;;;;;5016417;28;20054;-62
2022/03/25 04:11:33;;;;;;;22.50;13.98;;;;;;;;;;5016523;28;20052;-62
2022/03/25 04:14:00;;;;;;;25.02;14.15;;;;;;;;;;5016906;28;20486;-61
2022/03/25 04:16:26;;;;;;;23.08;15.02;;;;;;;;;;5016706;28;20050;-62
2022/03/25 04:18:53;;;;;;;25.55;13.90;;;;;;;;;;5016543;28;20492;-60
2022/03/25 04:21:20;;;;;;;22.40;13.60;;;;;;;;;;5016362;28;20050;-62
2022/03/25 04:23:49;;;;;;;21.90;13.32;;;;;;;;;;5016350;28;20157;-62
2022/03/25 04:26:17;;;;;;;20.70;13.38;;;;;;;;;;5012332;23;20055;-67
2022/03/25 04:28:44;;;;;;;23.15;13.02;;;;;;;;;;4957339;28;20051;-66
2022/03/25 04:31:11;;;;;;;21.23;12.90;;;;;;;;;;4957264;28;20051;-66
2022/03/25 04:33:38;;;;;;;20.13;12.77;;;;;;;;;;4957197;28;20483;-66
2022/03/25 04:36:05;;;;;;;21.58;13.10;;;;;;;;;;4957201;29;20055;-66
2022/03/25 04:38:32;;;;;;;20.80;12.80;;;;;;;;;;4956891;28;20063;-66
2022/03/25 04:41:00;;;;;;;18.58;12.13;;;;;;;;;;4957057;28;20058;-66
2022/03/25 04:43:28;;;;;;;20.23;12.27;;;;;;;;;;4957233;29;20105;-66
2022/03/25 04:45:55;;;;;;;19.73;11.65;;;;;;;;;;4941172;28;20556;-66
2022/03/25 04:48:22;;;;;;;19.95;11.80;;;;;;;;;;4937813;29;20055;-66
2022/03/25 04:50:49;;;;;;;16.85;12.00;;;;;;;;;;4937745;29;20048;-67
2022/03/25 04:53:16;;;;;;;20.02;12.30;;;;;;;;;;4937799;29;20420;-66
2022/03/25 04:55:43;;;;;;;21.25;12.80;;;;;;;;;;4937667;29;20083;-66
2022/03/25 04:58:12;;;;;;;20.65;12.82;;;;;;;;;;4937469;29;20075;-66
2022/03/25 05:00:39;;;;;;;20.25;12.27;;;;;;;;;;4937558;29;20058;-66
2022/03/25 05:03:06;;;;;;;22.42;12.52;;;;;;;;;;4937429;29;20058;-66
2022/03/25 05:05:34;;;;;;;21.55;12.43;;;;;;;;;;4937166;29;20058;-66
2022/03/25 05:08:01;;;;;;;19.50;11.85;;;;;;;;;;4937389;29;20446;-66
2022/03/25 05:10:28;;;;;;;32.50;15.13;;;;;;;;;;4937879;29;20054;-66
2022/03/25 05:12:56;;;;;;;20.73;12.68;;;;;;;;;;4937123;29;20052;-66
2022/03/25 05:15:24;;;;;;;19.33;11.57;;;;;;;;;;4936625;29;20509;-66
2022/03/25 05:17:52;;;;;;;20.23;12.15;;;;;;;;;;4937450;29;20232;-66
2022/03/25 05:20:21;;;;;;;16.23;9.90;;;;;;;;;;4937435;29;20047;-66
2022/03/25 05:22:50;;;;;;;17.73;11.52;;;;;;;;;;4937432;29;20066;-66
2022/03/25 05:25:17;;;;;;;20.85;11.77;;;;;;;;;;4937178;29;20522;-66
2022/03/25 05:27:49;;;;;;;19.38;12.65;;;;;;;;;;4936812;29;20131;-67
2022/03/25 05:30:17;;;;;;;22.63;12.55;;;;;;;;;;4937164;29;20511;-66
2022/03/25 05:32:45;;;;;;;21.33;13.23;;;;;;;;;;4937027;29;20131;-67
2022/03/25 05:35:12;;;;;;;25.20;13.30;;;;;;;;;;4937135;29;20390;-67
2022/03/25 05:37:40;;;;;;;22.05;12.40;;;;;;;;;;4936823;29;20056;-67
2022/03/25 05:40:09;;;;;;;26.42;14.57;;;;;;;;;;4936883;29;20416;-66
2022/03/25 05:42:36;;;;;;;22.35;13.43;;;;;;;;;;4936964;29;20470;-69
2022/03/25 05:45:05;;;;;;;25.13;14.70;;;;;;;;;;4945470;29;20580;-66
2022/03/25 05:47:32;;;;;;;22.35;12.70;;;;;;;;;;4955646;28;20055;-66
2022/03/25 05:50:01;;;;;;;20.63;12.30;;;;;;;;;;4955893;28;20051;-66
2022/03/25 05:52:28;;;;;;;21.83;11.82;;;;;;;;;;4955646;28;20047;-67
2022/03/25 05:54:55;;;;;;;16.45;9.73;;;;;;;;;;4955487;28;20328;-67
2022/03/25 05:57:22;;;;;;;14.57;8.30;;;;;;;;;;4955740;28;20500;-67
2022/03/25 05:59:49;;;;;;;13.32;8.20;;;;;;;;;;4955787;29;20087;-67
2022/03/25 06:02:16;;;;;;;11.77;8.20;;;;;;;;;;4955522;28;20505;-66
2022/03/25 06:04:43;;;;;;;15.65;9.75;;;;;;;;;;4955638;28;20416;-67
2022/03/25 06:07:12;;;;;;;11.57;7.68;;;;;;;;;;4955404;28;20493;-68
2022/03/25 06:09:39;;;;;;;14.65;8.15;;;;;;;;;;4955542;28;20527;-66
2022/03/25 06:12:07;;;;;;;14.13;8.55;;;;;;;;;;4955445;28;20062;-66
2022/03/25 06:14:34;;;;;;;14.13;8.13;;;;;;;;;;4955423;28;20419;-67
2022/03/25 06:17:02;;;;;;;14.63;8.82;;;;;;;;;;4955304;28;20047;-67
2022/03/25 06:19:29;;;;;;;12.43;8.05;;;;;;;;;;4955148;28;20050;-67
2022/03/25 06:21:56;;;;;;;13.48;8.73;;;;;;;;;;4955243;28;20059;-66
2022/03/25 06:24:25;;;;;;;13.68;8.82;;;;;;;;;;4955518;28;20047;-66
2022/03/25 06:26:52;;;;;;;15.13;8.40;;;;;;;;;;4954881;28;20496;-67
2022/03/25 06:29:20;;;;;;;13.38;9.05;;;;;;;;;;4955264;28;20051;-66
2022/03/25 06:31:47;;;;;;;13.27;9.18;;;;;;;;;;4955277;28;20071;-66
2022/03/25 06:34:20;;;;;;;16.63;8.75;;;;;;;;;;4954858;28;20102;-65
2022/03/25 06:36:47;;;;;;;16.58;9.32;;;;;;;;;;4955074;28;20559;-66
2022/03/25 06:39:14;;;;;;;14.13;8.48;;;;;;;;;;4955082;28;20128;-66
2022/03/25 06:41:42;;;;;;;15.88;8.38;;;;;;;;;;4955078;28;20423;-66
2022/03/25 06:44:09;;;;;;;14.68;9.02;;;;;;;;;;4953153;28;20059;-66
2022/03/25 06:46:37;;;;;;;18.42;10.07;;;;;;;;;;4935379;29;20158;-66
2022/03/25 06:49:04;;;;;;;15.30;9.73;;;;;;;;;;4935340;29;20503;-66
2022/03/25 06:51:32;;;;;;;15.52;10.18;;;;;;;;;;4935757;29;20518;-67
2022/03/25 06:53:59;;;;;;;16.98;9.45;;;;;;;;;;4935409;29;20127;-67
2022/03/25 06:56:27;;;;;;;16.35;9.88;;;;;;;;;;4935323;29;20056;-66
2022/03/25 06:58:57;;;;;;;18.60;10.10;;;;;;;;;;4935419;29;20139;-66
2022/03/25 07:01:24;;;;;;;18.60;12.02;;;;;;;;;;4935426;29;20058;-66
2022/03/25 07:03:52;;;;;;;16.88;10.45;;;;;;;;;;4935239;29;20063;-66
2022/03/25 07:06:24;;;;;;;17.10;10.02;;;;;;;;;;4935107;29;20126;-67
2022/03/25 07:08:54;;;;;;;17.65;10.20;;;;;;;;;;4935312;29;20097;-67
2022/03/25 07:11:22;;;;;;;17.23;10.70;;;;;;;;;;4935575;29;20497;-67
2022/03/25 07:13:50;;;;;;;19.23;10.57;;;;;;;;;;4935042;29;20126;-67
2022/03/25 07:16:19;;;;;;;17.35;10.95;;;;;;;;;;4935257;29;20056;-66
2022/03/25 07:18:46;;;;;;;22.17;12.27;;;;;;;;;;4934903;29;20067;-66
2022/03/25 07:21:13;;;;;;;20.75;11.90;;;;;;;;;;4935284;29;20043;-67
2022/03/25 07:23:40;;;;;;;32.47;17.90;;;;;;;;;;4935101;29;20047;-66
2022/03/25 07:26:08;;;;;;;21.42;13.13;;;;;;;;;;4934816;29;20143;-67
2022/03/25 07:28:35;;;;;;;25.45;14.82;;;;;;;;;;4934963;29;20052;-67
2022/03/25 07:31:02;;;;;;;21.08;12.25;;;;;;;;;;4935389;29;20051;-66
2022/03/25 07:33:31;;;;;;;23.65;12.88;;;;;;;;;;4935131;29;20134;-66
2022/03/25 07:35:59;;;;;;;22.73;13.52;;;;;;;;;;4935138;29;20473;-67
2022/03/25 07:38:27;;;;;;;21.30;12.85;;;;;;;;;;4934868;29;20056;-67
2022/03/25 07:40:54;;;;;;;21.45;13.48;;;;;;;;;;4935054;29;20055;-67
2022/03/25 07:43:21;;;;;;;23.65;14.00;;;;;;;;;;4935337;29;20110;-67
2022/03/25 07:45:48;;;;;;;24.90;15.50;;;;;;;;;;4949130;29;20142;-67
2022/03/25 07:48:15;;;;;;;24.05;13.80;;;;;;;;;;4954356;28;20055;-66
2022/03/25 07:50:44;;;;;;;24.73;13.60;;;;;;;;;;4953939;28;20086;-67
2022/03/25 07:53:11;;;;;;;23.70;14.48;;;;;;;;;;4953967;28;20058;-66
2022/03/25 07:55:38;;;;;;;22.48;13.55;;;;;;;;;;4953772;28;20047;-66
2022/03/25 07:58:05;;;;;;;25.73;15.63;;;;;;;;;;4953937;28;20475;-65
2022/03/25 08:00:32;;;;;;;24.52;13.73;;;;;;;;;;4954422;28;20043;-67
2022/03/25 08:02:59;;;;;;;27.88;16.40;;;;;;;;;;4955076;28;20500;-67
2022/03/25 08:05:26;;;;;;;29.30;16.77;;;;;;;;;;4954197;28;20412;-67
2022/03/25 08:07:55;;;;;;;27.58;16.08;;;;;;;;;;4953754;28;20090;-66
2022/03/25 08:10:24;;;;;;;25.10;14.35;;;;;;;;;;4953982;28;20415;-66
2022/03/25 08:12:53;;;;;;;31.80;14.73;;;;;;;;;;4954120;29;20162;-66
2022/03/25 08:15:20;;;;;;;23.48;13.80;;;;;;;;;;4954257;28;20059;-66
2022/03/25 08:17:49;;;;;;;26.33;15.32;;;;;;;;;;4954135;28;20053;-67
2022/03/25 08:20:25;;;;;;;23.52;14.90;;;;;;;;;;4953830;29;20051;-67
2022/03/25 08:22:52;;;;;;;28.75;16.45;;;;;;;;;;4954128;28;20051;-67
2022/03/25 08:28:05;;;;;;;24.30;14.68;;;;;;;;;;4953757;29;20058;-67
2022/03/25 08:30:33;;;;;;;25.90;15.07;;;;;;;;;;4953631;28;20051;-66
2022/03/25 08:33:01;;;;;;;25.90;16.58;;;;;;;;;;4957966;29;20055;-67
2022/03/25 08:35:29;;;;;;;23.75;14.57;;;;;;;;;;4958678;28;20078;-67
2022/03/25 08:37:57;;;;;;;25.70;15.48;;;;;;;;;;4953874;28;20571;-67
2022/03/25 08:40:28;;;;;;;26.77;16.13;;;;;;;;;;4953860;28;20047;-66
2022/03/25 08:42:55;;;;;;;27.65;15.63;;;;;;;;;;4953847;28;20130;-67
2022/03/25 08:45:23;;;;;;;28.83;16.10;;;;;;;;;;4942137;28;20127;-67
2022/03/25 08:47:50;;;;;;;26.60;16.30;;;;;;;;;;4934402;29;20480;-65
2022/03/25 08:50:18;;;;;;;27.65;16.02;;;;;;;;;;4935899;29;20087;-66
2022/03/25 08:52:47;;;;;;;26.85;16.10;;;;;;;;;;4938269;29;20044;-67
2022/03/25 08:55:14;;;;;;;26.38;16.13;;;;;;;;;;4937849;29;20056;-66
2022/03/25 08:57:43;;;;;;;28.02;16.30;;;;;;;;;;4937998;29;20059;-68
2022/03/25 09:00:13;;;;;;;28.20;16.05;;;;;;;;;;4937779;29;20135;-66
2022/03/25 09:02:41;;;;;;;26.15;16.60;;;;;;;;;;4938023;29;20107;-67
2022/03/25 09:05:09;;;;;;;27.92;16.80;;;;;;;;;;4937416;29;20056;-68
2022/03/25 09:07:37;;;;;;;27.02;16.80;;;;;;;;;;4937389;29;20176;-66
2022/03/25 09:10:04;;;;;;;25.02;15.75;;;;;;;;;;4937569;29;20129;-68
2022/03/25 09:12:31;;;;;;;24.58;15.48;;;;;;;;;;4937484;29;20055;-67
2022/03/25 09:15:00;;;;;;;27.13;16.17;;;;;;;;;;4937443;29;20062;-67
2022/03/25 09:17:27;;;;;;;28.10;16.23;;;;;;;;;;4937694;29;20459;-67
2022/03/25 09:19:54;;;;;;;27.48;16.38;;;;;;;;;;4937221;29;20405;-67
2022/03/25 09:22:21;;;;;;;27.02;16.27;;;;;;;;;;4937679;29;20050;-67
2022/03/25 09:24:48;;;;;;;28.27;17.05;;;;;;;;;;4937299;29;20131;-67
2022/03/25 09:27:15;;;;;;;28.05;17.27;;;;;;;;;;4936906;29;20051;-67
2022/03/25 09:29:43;;;;;;;29.08;16.92;;;;;;;;;;4937336;29;20048;-68
2022/03/25 09:32:11;;;;;;;29.88;19.20;;;;;;;;;;4937025;29;20111;-67
2022/03/25 09:37:23;;;;;;;32.25;18.52;;;;;;;;;;4937428;29;20062;-67
2022/03/25 09:39:51;;;;;;;27.35;16.42;;;;;;;;;;4937115;29;20130;-66
2022/03/25 09:42:19;;;;;;;28.73;16.30;;;;;;;;;;4937126;29;20062;-66
2022/03/25 09:44:46;;;;;;;32.47;16.85;;;;;;;;;;4943181;29;20043;-67
2022/03/25 09:47:16;;;;;;;27.25;16.80;;;;;;;;;;4956427;28;20424;-66
2022/03/25 09:49:44;;;;;;;28.00;16.95;;;;;;;;;;4956575;28;20047;-68
2022/03/25 09:52:11;;;;;;;29.75;17.30;;;;;;;;;;4956408;28;20043;-67
2022/03/25 09:54:38;;;;;;;27.90;17.52;;;;;;;;;;4955673;28;20142;-66
2022/03/25 09:57:06;;;;;;;29.25;17.27;;;;;;;;;;4955475;28;20059;-67
2022/03/25 09:59:33;;;;;;;27.90;17.23;;;;;;;;;;4955943;28;20436;-68
2022/03/25 10:02:00;;;;;;;28.90;17.10;;;;;;;;;;4955403;28;20051;-67
2022/03/25 10:04:41;;;;;;;29.13;17.17;;;;;;;;;;4955886;29;20055;-67
2022/03/25 10:07:19;;;;;;;27.65;16.52;;;;;;;;;;4955474;28;20051;-67
2022/03/25 10:09:46;;;;;;;28.60;17.73;;;;;;;;;;4955734;28;20452;-67
2022/03/25 10:12:24;;;;;;;29.10;17.45;;;;;;;;;;4955427;28;20047;-67
2022/03/25 10:14:52;;;;;;;28.98;16.98;;;;;;;;;;4955296;28;20139;-66
2022/03/25 10:17:19;;;;;;;29.35;18.10;;;;;;;;;;4954878;28;20055;-66
2022/03/25 10:19:53;;;;;;;34.08;19.77;;;;;;;;;;4954949;28;20140;-68
2022/03/25 10:22:20;;;;;;;32.50;19.30;;;;;;;;;;4955093;28;20453;-67
2022/03/25 10:24:49;;;;;;;28.88;17.83;;;;;;;;;;4954945;28;20515;-67
2022/03/25 10:27:21;;;;;;;32.58;19.83;;;;;;;;;;4982576;23;20047;-79
2022/03/25 10:29:50;;;;;;;29.25;18.25;;;;;;;;;;4985806;28;20061;-80
2022/03/25 10:32:19;;;;;;;33.92;19.08;;;;;;;;;;4979879;28;20085;-77
2022/03/25 10:35:02;;;;;;;30.42;18.50;;;;;;;;;;4979382;28;20055;-79
2022/03/25 10:37:29;;;;;;;34.72;19.85;;;;;;;;;;4984920;28;20081;-80
2022/03/25 10:39:56;;;;;;;31.42;18.55;;;;;;;;;;4984704;28;20137;-79
2022/03/25 10:42:23;;;;;;;29.75;18.65;;;;;;;;;;4993170;28;20042;-78
2022/03/25 10:44:50;;;;;;;29.77;17.70;;;;;;;;;;4988646;28;20043;-79
2022/03/25 10:47:26;;;;;;;33.95;20.38;;;;;;;;;;4973991;28;20118;-78
2022/03/25 10:49:54;;;;;;;32.50;19.70;;;;;;;;;;4972187;28;20051;-79
2022/03/25 10:52:24;;;;;;;34.42;19.15;;;;;;;;;;4962045;28;20043;-78
2022/03/25 10:54:51;;;;;;;;;;;;;;;;;;4960084;28;20127;-77
2022/03/25 10:57:18;;;;;;;32.53;18.90;;;;;;;;;;4961746;28;19922;-78
2022/03/25 10:59:58;;;;;;;29.40;18.38;;;;;;;;;;4962296;28;20531;-78
2022/03/25 11:02:26;;;;;;;33.13;20.15;;;;;;;;;;4972473;28;20031;-77
2022/03/25 11:04:55;;;;;;;29.30;17.60;;;;;;;;;;4969944;28;20055;-78
2022/03/25 11:07:25;;;;;;;27.70;19.38;;;;;;;;;;4967648;28;20054;-77
2022/03/25 11:09:53;;;;;;;29.52;18.58;;;;;;;;;;4965856;28;20155;-77
2022/03/25 11:12:22;;;;;;;29.35;17.85;;;;;;;;;;4963933;28;20051;-77
2022/03/25 11:14:49;;;;;;;28.00;16.55;;;;;;;;;;4963414;28;20058;-78
2022/03/25 11:17:17;;;;;;;28.83;18.35;;;;;;;;;;4961763;28;20047;-77
2022/03/25 11:19:45;;;;;;;30.63;18.08;;;;;;;;;;4960888;28;20047;-78
2022/03/25 11:22:14;;;;;;;28.55;17.67;;;;;;;;;;4960270;28;20086;-77
2022/03/25 11:24:48;;;;;;;28.98;17.20;;;;;;;;;;4958569;28;20051;-78
2022/03/25 11:27:20;;;;;;;29.27;18.80;;;;;;;;;;4960048;28;20074;-79
2022/03/25 11:29:50;;;;;;;31.08;19.08;;;;;;;;;;4960334;28;20058;-80
2022/03/25 11:32:18;;;;;;;32.63;19.33;;;;;;;;;;4960106;28;20531;-80
2022/03/25 11:34:47;;;;;;;30.67;18.48;;;;;;;;;;4961471;28;20102;-79
2022/03/25 11:37:20;;;;;;;27.10;17.25;;;;;;;;;;4965203;28;20051;-79
2022/03/25 11:39:48;;;;;;;32.50;18.05;;;;;;;;;;4964010;28;20055;-76
2022/03/25 11:42:39;;;;;;;29.17;18.40;;;;;;;;;;4960786;28;20051;-79
2022/03/25 11:45:35;;;;;;;26.70;16.27;;;;;;;;;;4958137;28;20083;-78
2022/03/25 11:48:41;;;;;;;27.13;16.52;;;;;;;;;;4957980;29;20051;-79
2022/03/25 11:51:30;;;;;;;23.30;14.80;;;;;;;;;;4930126;28;20053;-79
2022/03/25 11:53:57;;;;;;;27.08;17.45;;;;;;;;;;4947542;28;20423;-80
2022/03/25 11:56:25;;;;;;;26.45;17.98;;;;;;;;;;4957951;29;20106;-80
2022/03/25 11:59:01;;;;;;;27.90;17.00;;;;;;;;;;4959243;29;20061;-79
2022/03/25 12:01:30;;;;;;;25.70;16.63;;;;;;;;;;4960124;29;20078;-79
2022/03/25 12:03:59;;;;;;;24.15;16.52;;;;;;;;;;4959559;29;20067;-78
2022/03/25 12:06:27;;;;;;;31.90;18.95;;;;;;;;;;4958558;28;20047;-78
2022/03/25 12:08:59;;;;;;;26.05;15.63;;;;;;;;;;4958757;28;20498;-80
2022/03/25 12:11:50;;;;;;;28.15;17.83;;;;;;;;;;4958827;28;20051;-79
2022/03/25 12:14:17;;;;;;;;;;;;;;;;;;4960085;29;20051;-79
2022/03/25 12:16:57;;;;;;;25.77;16.83;;;;;;;;;;4958984;29;19931;-79
2022/03/25 12:19:53;;;;;;;25.20;16.63;;;;;;;;;;4960205;28;20435;-79
2022/03/25 12:22:42;;;;;;;25.80;16.63;;;;;;;;;;4959711;28;20059;-79
2022/03/25 12:25:20;;;;;;;26.45;16.67;;;;;;;;;;4960964;28;20106;-80
2022/03/25 12:27:51;;;;;;;60.70;40.33;;;;;;;;;;4963040;29;20466;-80
2022/03/25 12:30:18;;;;;;;28.67;18.02;;;;;;;;;;4963107;28;20044;-80
2022/03/25 12:32:45;;;;;;;28.88;19.63;;;;;;;;;;4962871;28;20047;-79
2022/03/25 12:35:16;;;;;;;33.05;24.23;;;;;;;;;;4962892;29;20059;-80
2022/03/25 12:37:49;;;;;;;36.70;28.38;;;;;;;;;;4967442;28;20098;-78
2022/03/25 12:40:19;;;;;;;25.88;18.90;;;;;;;;;;4970810;29;20055;-78
2022/03/25 12:42:51;;;;;;;22.50;15.55;;;;;;;;;;4969880;28;20051;-79
2022/03/25 12:45:18;;;;;;;21.83;15.02;;;;;;;;;;4957731;29;20099;-79
2022/03/25 12:47:46;;;;;;;22.33;14.98;;;;;;;;;;4948517;29;20052;-78
2022/03/25 12:50:17;;;;;;;23.65;16.63;;;;;;;;;;4948945;29;20066;-79
2022/03/25 12:52:44;;;;;;;23.00;14.68;;;;;;;;;;4956455;29;20062;-78
2022/03/25 12:55:15;;;;;;;22.52;15.35;;;;;;;;;;4958469;29;20047;-79
2022/03/25 12:57:43;;;;;;;20.80;14.20;;;;;;;;;;4956542;29;20047;-79
2022/03/25 13:00:13;;;;;;;19.45;13.32;;;;;;;;;;4950594;29;20059;-79
2022/03/25 13:02:41;;;;;;;20.25;14.40;;;;;;;;;;4942985;29;20059;-79
2022/03/25 13:05:13;;;;;;;21.55;15.40;;;;;;;;;;4942412;29;20055;-79
2022/03/25 13:07:41;;;;;;;27.38;17.73;;;;;;;;;;4943651;29;20056;-79
2022/03/25 13:10:10;;;;;;;22.52;15.55;;;;;;;;;;4942686;29;20052;-78
2022/03/25 13:12:38;;;;;;;23.00;16.05;;;;;;;;;;4942164;29;20507;-78
2022/03/25 13:15:06;;;;;;;25.33;16.67;;;;;;;;;;4939837;29;20051;-79
2022/03/25 13:17:39;;;;;;;25.75;17.50;;;;;;;;;;4943836;29;20059;-78
2022/03/25 13:20:09;;;;;;;25.38;16.60;;;;;;;;;;4951997;29;20063;-78
2022/03/25 13:22:37;;;;;;;;;;;;;;;;;;4951667;29;20082;-78
2022/03/25 13:25:06;;;;;;;23.52;16.67;;;;;;;;;;4943582;29;19934;-78
2022/03/25 13:27:33;;;;;;;25.98;16.30;;;;;;;;;;4941674;29;20055;-78
2022/03/25 13:30:00;;;;;;;25.52;17.00;;;;;;;;;;4941525;29;20047;-78
2022/03/25 13:32:34;;;;;;;34.33;22.13;;;;;;;;;;4941742;29;20063;-78
2022/03/25 13:35:05;;;;;;;25.98;17.85;;;;;;;;;;4941129;29;20056;-78
2022/03/25 13:37:32;;;;;;;24.13;16.02;;;;;;;;;;4941381;29;20525;-79
2022/03/25 13:39:59;;;;;;;25.90;17.73;;;;;;;;;;4942363;29;20079;-79
2022/03/25 13:42:33;;;;;;;23.70;16.50;;;;;;;;;;4941772;29;20052;-79
2022/03/25 13:45:07;;;;;;;23.50;16.95;;;;;;;;;;4951014;29;20059;-78
2022/03/25 13:47:36;;;;;;;26.38;18.58;;;;;;;;;;4958939;29;20062;-79
2022/03/25 13:50:19;;;;;;;24.92;16.75;;;;;;;;;;4960168;29;20079;-78
2022/03/25 13:53:09;;;;;;;25.88;18.10;;;;;;;;;;4960179;28;20055;-78
2022/03/25 13:55:39;;;;;;;21.20;15.20;;;;;;;;;;4959794;28;20503;-79
2022/03/25 13:58:13;;;;;;;21.63;15.27;;;;;;;;;;4960021;28;20467;-79
2022/03/25 14:00:41;;;;;;;21.98;15.35;;;;;;;;;;4960354;28;20055;-79
2022/03/25 14:03:09;;;;;;;22.60;16.80;;;;;;;;;;4961117;29;20208;-80
2022/03/25 14:05:38;;;;;;;22.77;15.68;;;;;;;;;;4961287;29;20051;-78
2022/03/25 14:08:05;;;;;;;23.00;16.10;;;;;;;;;;4961095;28;20110;-80
2022/03/25 14:10:33;;;;;;;21.10;15.77;;;;;;;;;;4962229;29;20052;-80
2022/03/25 14:13:03;;;;;;;23.20;16.02;;;;;;;;;;4961272;28;20050;-80
2022/03/25 14:15:31;;;;;;;22.90;17.35;;;;;;;;;;4961137;28;20415;-79
2022/03/25 14:17:58;;;;;;;23.75;17.67;;;;;;;;;;4961964;29;20051;-79
2022/03/25 14:20:30;;;;;;;23.38;17.63;;;;;;;;;;4960234;29;20055;-78
2022/03/25 14:23:01;;;;;;;21.23;16.95;;;;;;;;;;4959352;28;20082;-78
2022/03/25 14:25:33;;;;;;;23.90;17.33;;;;;;;;;;4959028;29;20062;-79
2022/03/25 14:28:10;;;;;;;25.83;19.55;;;;;;;;;;4960800;28;20047;-81
2022/03/25 14:30:37;;;;;;;24.38;17.98;;;;;;;;;;4959947;29;20114;-78
2022/03/25 14:33:04;;;;;;;23.15;17.77;;;;;;;;;;4961235;29;20067;-77